Time;durP1;ratioP1;P1;durP2;ratioP2;P2;SDS_P1;SDS_P2;PMS_P1;PMS_P2;Temp;Humidity;BMP_temperature;BMP_pressure;BME280_temperature;BME280_humidity;BME280_pressure;Samples;Min_cycle;Max_cycle;Signal;HPM_P1;HPM_P2
2023/08/24 03:12:37;;;;;;;21.27;7.40;;;;;;;11.67;100.00;96022.19;7440163;19;20417;-96
2023/08/24 03:15:41;;;;;;;23.57;9.10;;;;;;;11.85;100.00;96049.13;7438222;19;20361;-95
2023/08/24 03:18:37;;;;;;;25.33;7.87;;;;;;;13.86;100.00;96318.78;7437303;19;20369;-94
2023/08/24 03:21:39;;;;;;;21.20;7.50;;;;;;;11.77;100.00;96005.03;7437120;19;20392;-95
2023/08/24 03:24:30;;;;;;;22.43;8.40;;;;;;;12.05;100.00;96019.00;7433471;19;20368;-96
2023/08/24 03:28:08;;;;;;;26.93;7.70;;;;;;;14.20;100.00;96333.97;7435935;19;20383;-94
2023/08/24 03:30:46;;;;;;;22.23;8.17;;;;;;;12.39;100.00;96077.69;7433350;19;20399;-96
2023/08/24 03:33:28;;;;;;;24.30;8.17;;;;;;;11.35;100.00;95999.41;7438296;19;20383;-96
2023/08/24 03:36:12;;;;;;;26.93;7.77;;;;;;;11.98;100.00;96139.91;7435540;19;20384;-95
2023/08/24 03:38:46;;;;;;;17.30;6.90;;;;;;;10.91;100.00;95971.03;7434084;19;20358;-95
2023/08/24 03:41:35;;;;;;;22.07;8.70;;;;;;;13.05;100.00;96344.97;7436092;19;20449;-96
2023/08/24 03:44:42;;;;;;;27.13;8.93;;;;;;;13.44;100.00;96329.25;7435888;19;20420;-95
2023/08/24 03:47:31;;;;;;;19.67;9.40;;;;;;;11.51;100.00;96000.22;7432253;19;20364;-96
2023/08/24 03:51:05;;;;;;;20.63;7.60;;;;;;;13.67;100.00;96327.50;7432798;19;20412;-96
2023/08/24 03:54:06;;;;;;;23.33;8.40;;;;;;;11.67;100.00;96027.47;7435266;19;20379;-96
2023/08/24 03:57:21;;;;;;;25.63;8.20;;;;;;;11.53;100.00;96012.00;7434794;19;20378;-95
2023/08/24 04:00:17;;;;;;;22.17;7.87;;;;;;;12.89;100.00;96230.06;7432072;19;20412;-95
2023/08/24 04:03:17;;;;;;;28.23;8.83;;;;;;;11.58;100.00;96018.16;7429183;19;20360;-96
2023/08/24 04:09:13;;;;;;;32.03;7.53;;;;;;;11.37;100.00;95995.34;7434838;19;20396;-94
2023/08/24 04:12:31;;;;;;;23.50;10.17;;;;;;;13.67;100.00;96355.97;7437560;19;20361;-96
2023/08/24 04:16:03;;;;;;;27.50;8.10;;;;;;;11.39;100.00;96072.53;7434359;19;20371;-96
2023/08/24 04:19:16;;;;;;;17.73;7.53;;;;;;;13.47;100.00;96345.25;7435296;19;20412;-96
2023/08/24 04:22:41;;;;;;;23.97;10.53;;;;;;;11.20;100.00;96001.69;7434118;19;20369;-95
2023/08/24 04:29:09;;;;;;;34.90;10.27;;;;;;;13.47;100.00;96358.53;7435643;19;20393;-95
2023/08/24 04:32:27;;;;;;;29.63;8.60;;;;;;;13.23;100.00;96350.75;7432561;19;20400;-96
2023/08/24 04:35:58;;;;;;;15.00;9.70;;;;;;;10.93;100.00;96034.19;7435418;19;20361;-95
2023/08/24 04:38:50;;;;;;;27.53;7.97;;;;;;;12.84;100.00;96344.44;7434955;19;20357;-95
2023/08/24 04:41:57;;;;;;;28.83;9.50;;;;;;;12.82;100.00;96339.47;7433321;19;20381;-96
2023/08/24 04:45:14;;;;;;;28.00;8.83;;;;;;;12.98;100.00;96345.56;7434159;19;20388;-96
2023/08/24 04:48:37;;;;;;;;;;;;;;;;;;;;;
2023/08/24 08:03:16;;;;;;;7.93;7.00;;;;;;;21.36;100.00;96330.78;7430827;19;20432;-96
2023/08/24 08:06:08;;;;;;;8.43;7.57;;;;;;;18.90;100.00;95983.06;7434385;19;20381;-96
2023/08/24 12:07:08;;;;;;;5.30;4.73;;;;;;;27.99;60.23;96149.34;7412985;19;20476;-94
2023/08/24 12:09:52;;;;;;;5.73;5.23;;;;;;;26.33;57.06;95883.34;7413555;19;20404;-94
2023/08/24 12:12:23;;;;;;;5.80;4.80;;;;;;;27.13;57.17;95986.00;7417515;19;20376;-94
2023/08/24 12:14:57;;;;;;;7.20;5.00;;;;;;;25.92;57.43;95873.53;7422623;19;20372;-95
2023/08/24 12:17:49;;;;;;;6.07;5.47;;;;;;;27.55;57.35;96021.69;7423224;19;20424;-93
2023/08/24 12:20:23;;;;;;;5.70;5.20;;;;;;;27.00;59.38;95882.91;7433015;19;20419;-95
2023/08/24 12:22:55;;;;;;;11.90;7.20;;;;;;;27.36;60.67;95914.16;7423260;19;20388;-94
2023/08/24 12:25:44;;;;;;;5.40;4.80;;;;;;;27.64;59.49;95989.13;7418091;19;20455;-95
2023/08/24 12:28:16;;;;;;;5.60;4.37;;;;;;;27.29;56.76;95890.75;7417791;19;20365;-94
2023/08/24 12:31:17;;;;;;;5.23;4.63;;;;;;;27.49;58.22;95865.16;7419777;19;20381;-94
2023/08/24 12:34:51;;;;;;;5.80;4.73;;;;;;;27.46;52.80;95850.50;7419416;19;20384;-94
2023/08/24 12:37:58;;;;;;;5.40;4.90;;;;;;;29.50;47.13;96136.75;7418233;19;20400;-95
2023/08/24 12:45:10;;;;;;;5.63;5.13;;;;;;;29.75;48.17;96120.06;7421303;19;20343;-95
2023/08/24 12:48:14;;;;;;;6.70;4.47;;;;;;;29.30;45.92;96123.59;7420669;19;20395;-95
2023/08/24 12:54:26;;;;;;;7.80;4.80;;;;;;;27.07;48.79;95849.31;7398927;19;20373;-93
2023/08/24 12:58:04;;;;;;;5.07;4.60;;;;;;;29.17;48.67;96098.47;7405606;19;20423;-94
2023/08/24 14:07:51;;;;;;;5.03;4.53;;;;;;;27.78;50.06;95876.44;7410609;19;20436;-94
2023/08/24 14:10:30;;;;;;;5.70;5.20;;;;;;;27.87;49.95;95737.06;7417934;19;20435;-95
2023/08/24 14:13:03;;;;;;;7.47;4.73;;;;;;;29.12;48.24;95865.63;7423071;19;20405;-94
2023/08/24 14:15:46;;;;;;;;;;;;;;;;;;;;;
2023/08/24 14:18:25;;;;;;;5.97;4.27;;;;;;;29.36;48.21;95903.81;7421568;19;20405;-95
2023/08/24 14:20:56;;;;;;;5.63;4.53;;;;;;;27.59;48.68;95731.63;7419489;19;20399;-93
2023/08/24 14:23:27;;;;;;;7.73;5.30;;;;;;;28.17;48.95;95842.16;7410723;19;20455;-94
2023/08/24 14:25:58;;;;;;;6.57;5.37;;;;;;;28.46;49.62;95860.03;7410816;19;20388;-92
2023/08/24 14:28:50;;;;;;;5.70;4.87;;;;;;;27.81;49.88;95774.22;7407666;19;20428;-93
2023/08/24 14:31:18;;;;;;;5.07;4.03;;;;;;;28.12;49.85;95815.59;7407327;19;20484;-94
2023/08/24 14:33:46;;;;;;;7.13;4.60;;;;;;;28.67;50.86;95852.88;7407984;19;20400;-94
2023/08/24 14:36:13;;;;;;;6.87;6.07;;;;;;;29.60;50.00;95969.28;7408160;19;20434;-93
2023/08/24 14:38:41;;;;;;;6.07;5.03;;;;;;;29.09;50.78;95833.88;7421267;19;20413;-94
2023/08/24 14:41:12;;;;;;;5.20;4.67;;;;;;;27.87;49.19;95726.97;7435336;19;20396;-94
2023/08/24 14:43:40;;;;;;;5.20;4.70;;;;;;;29.62;48.71;95871.47;7428737;19;20401;-94
2023/08/24 14:46:07;;;;;;;5.43;4.90;;;;;;;29.41;48.55;95792.25;7434950;19;20412;-94
2023/08/24 14:48:35;;;;;;;5.10;4.60;;;;;;;30.37;49.13;95889.63;7433746;19;20424;-95
2023/08/24 14:51:02;;;;;;;4.70;3.70;;;;;;;31.08;49.87;95949.50;7434766;19;20448;-94
2023/08/24 14:53:32;;;;;;;5.70;5.20;;;;;;;30.24;49.11;95887.16;7433015;19;20400;-93
2023/08/24 14:56:00;;;;;;;6.00;5.40;;;;;;;31.09;48.69;95950.25;7408025;19;20392;-93
2023/08/24 14:58:28;;;;;;;5.73;5.20;;;;;;;29.82;49.17;95884.53;7407072;19;20405;-91
2023/08/24 15:00:57;;;;;;;5.90;5.40;;;;;;;29.83;49.13;95864.25;7404691;19;20400;-92
2023/08/24 15:03:24;;;;;;;11.73;6.53;;;;;;;29.27;48.52;95727.56;7403019;19;20456;-92
2023/08/24 15:05:59;;;;;;;5.70;5.20;;;;;;;29.76;48.06;95799.91;7407478;19;20388;-92
2023/08/24 15:08:28;;;;;;;6.37;5.70;;;;;;;28.96;48.72;95757.84;7405409;19;20443;-93
2023/08/24 15:10:57;;;;;;;6.03;4.80;;;;;;;29.51;48.86;95846.69;7406831;19;20417;-92
2023/08/24 15:13:27;;;;;;;5.10;4.70;;;;;;;29.39;48.42;95826.63;7405373;19;20429;-92
2023/08/24 15:15:56;;;;;;;7.53;5.67;;;;;;;28.41;48.69;95711.75;7402723;19;20486;-91
2023/08/24 15:18:57;;;;;;;5.97;5.20;;;;;;;28.85;50.25;95858.28;7403778;19;20396;-92
2023/08/24 15:21:33;;;;;;;5.53;5.03;;;;;;;27.92;51.02;95877.81;7403479;19;20396;-93
2023/08/24 15:24:02;;;;;;;7.57;5.37;;;;;;;28.79;52.29;95964.28;7403297;19;20393;-94
2023/08/24 15:26:34;;;;;;;5.37;4.90;;;;;;;28.97;53.19;95955.34;7401050;19;20396;-93
2023/08/24 15:29:12;;;;;;;5.03;4.53;;;;;;;29.10;52.23;95957.91;7401055;19;20412;-92
2023/08/24 15:31:40;;;;;;;6.20;5.23;;;;;;;28.33;52.27;95897.50;7402604;19;20392;-93
2023/08/24 15:37:07;;;;;;;5.43;4.83;;;;;;;26.54;53.20;95664.16;7437972;19;20452;-96
2023/08/24 15:39:55;;;;;;;5.77;4.57;;;;;;;28.62;54.18;95935.13;7432607;19;20421;-95
2023/08/24 16:05:33;;;;;;;7.37;5.00;;;;;;;27.67;59.21;95791.88;7433336;19;20440;-96
2023/08/24 16:08:17;;;;;;;7.10;5.00;;;;;;;28.64;58.52;95940.88;7432408;19;20399;-96
2023/08/24 16:14:28;;;;;;;8.93;5.60;;;;;;;27.97;64.82;95934.28;7412261;19;20890;-93
2023/08/24 20:43:46;;;;;;;9.73;6.27;;;;;;;20.59;100.00;95739.81;7429778;19;20417;-96
